Time;durP1;ratioP1;P1;durP2;ratioP2;P2;SDS_P1;SDS_P2;PMS_P1;PMS_P2;Temp;Humidity;BMP_temperature;BMP_pressure;BME280_temperature;BME280_humidity;BME280_pressure;Samples;Min_cycle;Max_cycle;Signal;HPM_P1;HPM_P2
2021/12/08 07:33:44;;;;;;;57.47;28.23;;;;;;;-5.22;93.94;97609.36;1870698;76;24462;-70
2021/12/08 07:36:15;;;;;;;42.78;24.23;;;;;;;-5.20;93.88;97613.88;1758979;81;20876;-67
2021/12/08 07:38:46;;;;;;;41.53;21.57;;;;;;;-5.12;93.81;97613.20;1782768;80;21106;-61
2021/12/08 07:41:19;;;;;;;30.52;18.07;;;;;;;-5.02;93.72;97608.89;1781764;80;21335;-62
2021/12/08 07:43:50;;;;;;;25.40;15.78;;;;;;;-4.91;93.56;97609.58;1774184;80;21058;-64
2021/12/08 07:46:24;;;;;;;24.63;15.05;;;;;;;-4.78;93.41;97604.33;1769397;80;21014;-61
2021/12/08 07:48:55;;;;;;;28.42;15.63;;;;;;;-4.66;93.25;97593.56;1769076;80;20919;-67
2021/12/08 07:51:28;;;;;;;22.10;14.53;;;;;;;-4.54;93.15;97591.94;1768945;80;21132;-67
2021/12/08 07:54:01;;;;;;;23.35;13.88;;;;;;;-4.41;92.87;97588.50;1762724;80;21074;-64
2021/12/08 07:56:33;;;;;;;24.00;14.47;;;;;;;-4.31;92.68;97581.04;1728790;81;20958;-64
2021/12/08 07:59:03;;;;;;;27.35;16.82;;;;;;;-4.23;92.39;97577.68;1765473;80;20959;-61
2021/12/08 08:01:34;;;;;;;24.18;16.12;;;;;;;-4.13;92.06;97575.13;1763576;80;20951;-62
2021/12/08 08:04:20;;;;;;;26.05;16.02;;;;;;;-4.09;91.72;97567.16;1770237;80;21749;-66
2021/12/08 08:06:59;;;;;;;25.35;14.15;;;;;;;-4.06;91.61;97569.36;1761686;80;20906;-61
2021/12/08 08:09:31;;;;;;;24.65;14.33;;;;;;;-3.94;91.36;97565.89;1768751;80;21047;-63
2021/12/08 08:12:00;;;;;;;20.35;14.10;;;;;;;-3.89;90.94;97561.34;1766823;80;20955;-64
2021/12/08 08:14:34;;;;;;;23.83;14.15;;;;;;;-3.86;90.59;97559.63;1770831;80;21727;-66
2021/12/08 08:17:16;;;;;;;24.67;15.03;;;;;;;-3.83;90.23;97559.18;1769102;80;21142;-61
2021/12/08 08:19:46;;;;;;;26.25;15.03;;;;;;;-3.84;90.04;97570.68;1768524;80;21078;-65
2021/12/08 08:22:19;;;;;;;24.77;14.05;;;;;;;-3.83;90.04;97569.66;1754586;80;20947;-62
2021/12/08 08:24:50;;;;;;;27.35;14.58;;;;;;;-3.80;89.75;97570.55;1745566;80;21108;-63
2021/12/08 08:27:24;;;;;;;22.42;13.22;;;;;;;-3.78;89.68;97573.75;1736355;81;21673;-62
2021/12/08 08:29:58;;;;;;;23.02;12.98;;;;;;;-3.73;89.42;97577.86;1772604;80;21292;-63
2021/12/08 08:32:34;;;;;;;22.95;14.50;;;;;;;-3.70;89.25;97578.23;1766448;80;21394;-62
2021/12/08 08:35:15;;;;;;;24.72;14.40;;;;;;;-3.64;89.11;97574.78;1760983;80;21035;-67
2021/12/08 08:37:47;;;;;;;24.23;14.15;;;;;;;-3.59;88.92;97579.39;1744673;80;21007;-62
2021/12/08 08:40:32;;;;;;;22.35;14.30;;;;;;;-3.64;88.32;97579.22;1769118;80;20967;-66
2021/12/08 08:43:02;;;;;;;22.90;14.80;;;;;;;-3.65;88.42;97575.01;1773835;80;21116;-63
2021/12/08 08:45:35;;;;;;;25.12;15.53;;;;;;;-3.60;88.41;97583.01;1752056;81;20956;-65
2021/12/08 08:48:11;;;;;;;26.55;15.88;;;;;;;-3.59;88.30;97580.20;1757261;81;20933;-65
2021/12/08 08:50:44;;;;;;;26.30;15.28;;;;;;;-3.56;88.14;97584.22;1748933;81;20979;-61
2021/12/08 08:53:14;;;;;;;22.32;15.23;;;;;;;-3.57;88.07;97582.59;1775397;80;20951;-65
2021/12/08 08:55:50;;;;;;;25.32;15.90;;;;;;;-3.49;88.10;97577.13;1738976;81;21127;-63
2021/12/08 08:58:23;;;;;;;24.52;16.27;;;;;;;-3.46;87.97;97572.75;1749518;81;21075;-65
2021/12/08 09:00:59;;;;;;;25.70;16.50;;;;;;;-3.41;87.79;97565.59;1747115;81;20897;-63
2021/12/08 09:03:29;;;;;;;26.50;16.97;;;;;;;-3.34;87.84;97555.88;1760109;80;20991;-62
2021/12/08 09:06:19;;;;;;;23.20;15.20;;;;;;;-3.20;87.73;97558.16;1764956;80;20991;-60
2021/12/08 09:08:55;;;;;;;24.52;14.83;;;;;;;-3.07;87.42;97546.28;1757503;80;22723;-59
2021/12/08 09:11:31;;;;;;;25.35;15.70;;;;;;;-2.92;87.30;97543.34;1778708;80;20936;-63
2021/12/08 09:14:09;;;;;;;24.43;15.23;;;;;;;-2.81;87.10;97541.31;1782537;80;20935;-62
2021/12/08 09:16:53;;;;;;;22.20;14.73;;;;;;;-2.73;86.69;97543.62;1772700;80;21010;-61
2021/12/08 09:22:36;;;;;;;26.10;16.07;;;;;;;-2.80;85.82;97524.04;1745703;81;20952;-66
2021/12/08 09:25:25;;;;;;;22.58;14.78;;;;;;;-2.92;85.72;97520.52;1780657;80;20932;-64
2021/12/08 09:28:06;;;;;;;;;;;;;;;-3.03;85.45;97519.94;1760701;80;20881;-60
2021/12/08 09:30:45;;;;;;;24.55;15.45;;;;;;;-3.09;85.53;97525.23;1768418;80;21370;-61
2021/12/08 09:33:18;;;;;;;24.85;16.30;;;;;;;-3.12;85.51;97518.61;1777572;80;21715;-67
2021/12/08 09:35:51;;;;;;;25.97;16.20;;;;;;;-3.08;85.57;97515.84;1740918;81;21312;-63
2021/12/08 09:38:24;;;;;;;23.80;15.53;;;;;;;-2.99;85.65;97514.55;1744279;80;21025;-61
2021/12/08 09:41:00;;;;;;;26.80;15.90;;;;;;;-2.93;85.42;97513.70;1751032;80;21026;-64
2021/12/08 09:43:33;;;;;;;22.70;14.87;;;;;;;-2.94;84.99;97517.33;1752049;81;20970;-63
2021/12/08 09:46:09;;;;;;;27.82;17.48;;;;;;;-3.00;84.90;97514.77;1770368;80;21079;-60
2021/12/08 09:48:44;;;;;;;24.92;16.32;;;;;;;-3.09;84.95;97503.78;1739932;81;21541;-64
2021/12/08 09:51:15;;;;;;;39.67;21.50;;;;;;;-3.12;85.11;97505.51;1772965;80;20893;-64
2021/12/08 09:53:45;;;;;;;25.43;17.15;;;;;;;-3.13;85.05;97510.44;1762872;80;20948;-60
2021/12/08 09:56:12;;;;;;;24.57;15.60;;;;;;;-3.17;85.09;97511.09;1765084;80;20892;-63
2021/12/08 09:58:40;;;;;;;25.17;16.50;;;;;;;-3.23;84.91;97515.89;1761060;80;20939;-60
2021/12/08 10:01:13;;;;;;;27.42;18.02;;;;;;;-3.30;85.13;97509.91;1761290;80;20920;-68
2021/12/08 10:03:38;;;;;;;28.85;18.10;;;;;;;-3.29;85.36;97501.82;1766023;81;21554;-61
2021/12/08 10:06:05;;;;;;;25.37;16.60;;;;;;;-3.21;85.57;97512.04;1776724;80;20920;-63
2021/12/08 10:08:37;;;;;;;27.13;16.82;;;;;;;-3.15;85.46;97508.55;1772739;80;20941;-66
2021/12/08 10:11:07;;;;;;;26.82;16.95;;;;;;;-3.12;85.25;97511.25;1774857;80;20948;-64
2021/12/08 10:13:35;;;;;;;25.15;16.10;;;;;;;-3.18;85.22;97506.35;1769771;80;20994;-62
2021/12/08 10:16:07;;;;;;;21.30;15.35;;;;;;;-3.22;85.19;97498.64;1744583;81;21055;-62
2021/12/08 10:18:37;;;;;;;22.27;15.53;;;;;;;-3.25;85.36;97502.21;1784279;80;20990;-61
2021/12/08 10:21:06;;;;;;;22.70;15.25;;;;;;;-3.22;85.50;97505.69;1790810;80;20888;-63
2021/12/08 10:23:39;;;;;;;28.57;18.90;;;;;;;-3.16;85.64;97504.34;1791726;80;20995;-62
2021/12/08 10:26:17;;;;;;;26.68;16.85;;;;;;;-3.13;85.51;97495.25;1758991;80;21123;-62
2021/12/08 10:28:50;;;;;;;28.42;17.00;;;;;;;-3.15;85.58;97502.00;1759748;81;21014;-63
2021/12/08 10:31:30;;;;;;;28.00;17.20;;;;;;;-3.19;85.59;97500.03;1783656;80;20963;-64
2021/12/08 10:36:59;;;;;;;24.32;16.05;;;;;;;-3.19;85.81;97504.77;1751140;80;20991;-61
2021/12/08 10:39:47;;;;;;;22.85;16.07;;;;;;;-3.14;85.87;97505.42;1724867;81;21042;-60
2021/12/08 10:42:26;;;;;;;26.07;17.15;;;;;;;-3.10;85.89;97515.27;1732734;81;21510;-63
2021/12/08 10:47:38;;;;;;;21.87;15.58;;;;;;;-3.04;85.77;97513.08;1749455;81;20861;-64
2021/12/08 10:56:05;;;;;;;22.55;15.85;;;;;;;-3.04;85.56;97511.77;1755926;81;21534;-59
2021/12/08 10:58:35;;;;;;;21.37;15.30;;;;;;;-3.07;85.64;97511.41;1755321;81;20940;-59
2021/12/08 11:01:25;;;;;;;22.00;15.58;;;;;;;-3.10;85.66;97515.77;1755658;81;20999;-63
2021/12/08 11:04:07;;;;;;;21.17;15.10;;;;;;;-3.12;85.74;97507.32;1736114;81;21371;-63
2021/12/08 11:06:36;;;;;;;22.07;14.35;;;;;;;-3.11;85.81;97508.94;1742796;81;23055;-64
2021/12/08 11:09:14;;;;;;;21.57;14.18;;;;;;;-3.15;85.75;97508.55;1750965;81;20972;-58
2021/12/08 11:11:44;;;;;;;21.17;14.38;;;;;;;-3.22;85.70;97511.73;1762156;81;20988;-62
2021/12/08 11:14:14;;;;;;;22.62;14.40;;;;;;;-3.25;85.92;97505.61;1754816;81;20983;-61
2021/12/08 11:16:44;;;;;;;25.12;14.63;;;;;;;-3.25;85.88;97506.91;1754797;80;21500;-64
2021/12/08 11:19:22;;;;;;;24.55;15.00;;;;;;;-3.24;86.01;97509.84;1743252;81;21088;-66
2021/12/08 11:21:54;;;;;;;26.97;15.75;;;;;;;-3.23;86.12;97513.27;1764056;80;21478;-63
2021/12/08 11:24:33;;;;;;;22.80;15.55;;;;;;;-3.20;86.18;97507.08;1770895;80;20964;-63
2021/12/08 11:27:01;;;;;;;24.20;15.20;;;;;;;-3.17;86.22;97497.48;1763012;81;20853;-63
2021/12/08 11:29:31;;;;;;;23.73;14.65;;;;;;;-3.16;86.06;97505.66;1752184;81;21632;-60
2021/12/08 11:32:06;;;;;;;22.58;14.78;;;;;;;-3.23;86.06;97500.17;1756741;81;21027;-61
2021/12/08 11:34:40;;;;;;;24.23;15.05;;;;;;;-3.31;86.15;97499.92;1811838;78;20869;-60
2021/12/08 11:37:14;;;;;;;24.77;16.10;;;;;;;-3.35;86.31;97494.83;1816091;78;20964;-64
2021/12/08 11:39:47;;;;;;;27.48;16.45;;;;;;;-3.33;86.41;97498.03;1815526;78;21565;-61
2021/12/08 11:42:23;;;;;;;26.68;16.35;;;;;;;-3.34;86.54;97491.18;1810122;78;21494;-62
2021/12/08 11:44:54;;;;;;;25.90;16.95;;;;;;;-3.29;86.56;97492.66;1814476;78;21656;-59
2021/12/08 11:47:25;;;;;;;23.87;16.73;;;;;;;-3.24;86.46;97494.13;1811294;78;20885;-62
2021/12/08 11:49:57;;;;;;;29.00;18.73;;;;;;;-3.24;86.39;97491.50;1808645;78;20908;-62
2021/12/08 11:52:32;;;;;;;26.87;18.82;;;;;;;-3.23;86.48;97487.88;1792189;78;20955;-62
2021/12/08 11:55:06;;;;;;;29.65;18.37;;;;;;;-3.22;86.42;97492.09;1812090;78;20916;-63
2021/12/08 11:57:44;;;;;;;30.43;18.85;;;;;;;-3.22;86.39;97494.70;1812062;78;21027;-60
2021/12/08 12:00:22;;;;;;;27.20;17.97;;;;;;;-3.23;86.46;97487.88;1742263;80;20924;-60
2021/12/08 12:03:02;;;;;;;25.48;17.45;;;;;;;-3.26;86.35;97490.92;1809506;78;20896;-60
2021/12/08 12:05:44;;;;;;;29.72;18.65;;;;;;;-3.27;86.45;97485.91;1811511;78;20924;-60
2021/12/08 12:08:14;;;;;;;24.52;16.20;;;;;;;-3.28;86.37;97475.12;1819455;78;20956;-60
2021/12/08 12:10:47;;;;;;;24.40;16.15;;;;;;;-3.38;86.16;97473.49;1812803;78;20888;-60
2021/12/08 12:13:16;;;;;;;23.07;15.85;;;;;;;-3.48;86.32;97483.95;1812515;78;20964;-60
2021/12/08 12:15:49;;;;;;;24.10;16.12;;;;;;;-3.56;86.36;97480.27;1818295;78;20995;-62
2021/12/08 12:18:28;;;;;;;23.38;15.88;;;;;;;-3.60;86.50;97483.03;1813483;78;20983;-65
2021/12/08 12:21:00;;;;;;;29.87;17.80;;;;;;;-3.61;86.64;97479.33;1813471;78;20968;-65
2021/12/08 12:24:44;;;;;;;28.30;17.17;;;;;;;-3.55;86.76;97485.01;1864718;75;27895;-62
2021/12/08 12:27:27;;;;;;;;;;;;;;;-3.60;86.80;97484.84;1822378;77;20994;-67
2021/12/08 12:30:30;;;;;;;25.77;16.10;;;;;;;-3.61;86.69;97485.87;1815918;78;21131;-62
2021/12/08 12:32:56;;;;;;;20.90;14.10;;;;;;;-3.73;86.66;97487.56;1823944;77;20955;-66
2021/12/08 12:35:29;;;;;;;23.12;15.28;;;;;;;-3.78;86.90;97487.39;1796102;78;20935;-62
2021/12/08 12:38:09;;;;;;;22.70;15.68;;;;;;;-3.77;86.93;97487.70;1813437;78;21377;-64
2021/12/08 12:40:47;;;;;;;25.02;16.10;;;;;;;-3.79;87.03;97483.97;1821788;78;21292;-60
2021/12/08 12:43:29;;;;;;;24.25;16.12;;;;;;;-3.78;87.07;97491.31;1823825;77;21694;-59
2021/12/08 12:46:15;;;;;;;25.50;17.00;;;;;;;-3.82;87.10;97488.34;1827996;77;20911;-62
2021/12/08 12:48:42;;;;;;;29.05;17.70;;;;;;;-3.81;87.25;97492.54;1807435;78;21553;-62
2021/12/08 12:51:10;;;;;;;29.25;18.45;;;;;;;-3.77;87.36;97487.70;1831053;77;21484;-64
2021/12/08 12:53:53;;;;;;;26.82;18.30;;;;;;;-3.73;87.40;97494.11;1843211;77;20847;-67
2021/12/08 12:56:31;;;;;;;28.60;19.23;;;;;;;-3.73;87.37;97489.68;1825093;77;20956;-62
2021/12/08 12:58:58;;;;;;;28.17;18.15;;;;;;;-3.69;87.45;97497.89;1820248;77;21509;-63
2021/12/08 13:01:34;;;;;;;26.20;17.50;;;;;;;-3.65;87.51;97493.86;1826824;77;20939;-69
2021/12/08 13:04:08;;;;;;;24.55;16.32;;;;;;;-3.58;87.46;97497.23;1821544;77;21054;-61
2021/12/08 13:07:03;;;;;;;25.37;16.60;;;;;;;-3.59;87.36;97499.05;1821338;77;20918;-62
2021/12/08 13:09:54;;;;;;;23.37;16.40;;;;;;;-3.59;87.26;97505.59;1825616;77;22889;-62
2021/12/08 13:12:40;;;;;;;25.90;16.87;;;;;;;-3.61;87.20;97508.13;1796525;78;20986;-61
2021/12/08 13:15:20;;;;;;;25.88;16.77;;;;;;;-3.65;87.22;97510.34;1823830;78;26451;-59
2021/12/08 13:18:11;;;;;;;23.00;15.28;;;;;;;-3.69;87.21;97507.05;1823158;77;21376;-63
2021/12/08 13:20:43;;;;;;;21.85;15.43;;;;;;;-3.73;87.22;97511.12;1821736;77;20892;-61
2021/12/08 13:23:17;;;;;;;24.98;15.85;;;;;;;-3.80;87.12;97509.86;1817733;78;21132;-62
2021/12/08 13:26:07;;;;;;;25.35;17.30;;;;;;;-3.85;87.22;97508.87;1811723;78;20912;-61
2021/12/08 13:28:49;;;;;;;26.45;16.67;;;;;;;-3.87;87.23;97511.71;1810797;77;20991;-59
2021/12/08 13:31:26;;;;;;;26.42;16.82;;;;;;;-3.92;87.24;97514.66;1813914;77;21096;-61
2021/12/08 13:34:05;;;;;;;27.95;17.82;;;;;;;-3.95;87.42;97521.61;1821085;77;21011;-60
2021/12/08 13:36:43;;;;;;;30.52;18.82;;;;;;;-3.94;87.50;97512.76;1808327;79;21907;-66
2021/12/08 13:39:22;;;;;;;26.52;18.55;;;;;;;-3.96;87.49;97508.25;1806292;78;21493;-61
2021/12/08 13:42:00;;;;;;;28.42;18.65;;;;;;;-3.97;87.59;97507.94;1809525;77;20920;-66
2021/12/08 13:44:41;;;;;;;29.72;19.95;;;;;;;-3.97;87.64;97504.02;1810124;77;21047;-67
2021/12/08 13:47:29;;;;;;;28.55;19.60;;;;;;;-3.96;87.72;97508.25;1807700;78;21042;-60
2021/12/08 13:50:09;;;;;;;28.83;19.25;;;;;;;-3.96;87.68;97512.98;1791807;78;21483;-62
2021/12/08 13:52:46;;;;;;;27.05;18.10;;;;;;;-3.98;87.76;97519.43;1814067;78;20915;-62
2021/12/08 13:55:17;;;;;;;27.87;17.52;;;;;;;-3.96;87.81;97506.94;1807505;79;20991;-60
2021/12/08 13:58:08;;;;;;;27.52;17.60;;;;;;;-3.98;87.80;97507.66;1811900;79;20963;-63
